createdAt,value
2022-08-25T00:00:14.031Z,2.83
2022-08-25T00:02:45.540Z,3.10
2022-08-25T00:05:26.248Z,2.47
2022-08-25T00:07:54.852Z,2.50
2022-08-25T00:10:21.845Z,2.80
2022-08-25T00:12:48.982Z,2.73
2022-08-25T00:15:16.100Z,2.87
2022-08-25T00:17:43.183Z,2.97
2022-08-25T00:20:10.901Z,2.80
2022-08-25T00:22:37.930Z,2.47
2022-08-25T00:25:05.372Z,3.10
2022-08-25T00:27:32.397Z,3.03
2022-08-25T00:30:00.303Z,2.93
2022-08-25T00:32:27.604Z,3.23
2022-08-25T00:34:54.592Z,3.30
2022-08-25T00:37:21.619Z,3.33
2022-08-25T00:39:48.754Z,4.47
2022-08-25T00:42:16.500Z,3.13
2022-08-25T00:44:44.029Z,3.33
2022-08-25T00:47:11.282Z,3.53
2022-08-25T00:49:52.107Z,3.40
2022-08-25T00:52:23.882Z,3.67
2022-08-25T00:54:53.359Z,3.80
2022-08-25T00:57:31.772Z,4.00
2022-08-25T01:00:05.078Z,3.70
2022-08-25T01:02:32.250Z,3.90
2022-08-25T01:04:59.379Z,4.43
2022-08-25T01:07:26.492Z,4.03
2022-08-25T01:09:54.119Z,3.97
2022-08-25T01:12:22.166Z,4.03
2022-08-25T01:14:50.045Z,3.77
2022-08-25T01:17:17.495Z,4.40
2022-08-25T01:19:44.846Z,4.20
2022-08-25T01:22:12.394Z,3.70
2022-08-25T01:24:43.171Z,4.07
2022-08-25T01:27:11.162Z,3.87
2022-08-25T01:29:38.839Z,3.90
2022-08-25T01:32:09.438Z,4.40
2022-08-25T01:34:41.063Z,3.90
2022-08-25T01:37:12.063Z,4.03
2022-08-25T01:39:41.938Z,4.60
2022-08-25T01:42:20.241Z,4.53
2022-08-25T01:44:47.974Z,4.40
2022-08-25T01:47:16.169Z,4.43
2022-08-25T01:49:43.777Z,5.57
2022-08-25T01:52:21.416Z,5.10
2022-08-25T01:54:48.716Z,4.60
2022-08-25T01:57:15.958Z,4.80
2022-08-25T01:59:43.275Z,4.80
2022-08-25T02:02:10.598Z,4.53
2022-08-25T02:04:38.216Z,4.63
2022-08-25T02:07:07.189Z,4.93
2022-08-25T02:09:36.033Z,4.37
2022-08-25T02:12:03.644Z,4.70
2022-08-25T02:14:30.711Z,4.63
2022-08-25T02:16:57.908Z,5.30
2022-08-25T02:19:26.220Z,5.37
2022-08-25T02:21:53.673Z,4.20
2022-08-25T02:24:21.008Z,4.63
2022-08-25T02:26:48.569Z,4.77
2022-08-25T02:29:16.969Z,4.90
2022-08-25T02:31:44.494Z,4.57
2022-08-25T02:34:12.104Z,5.37
2022-08-25T02:36:40.157Z,4.63
2022-08-25T02:39:09.419Z,4.47
2022-08-25T02:41:36.868Z,4.30
2022-08-25T02:44:05.137Z,4.60
2022-08-25T02:46:32.822Z,4.53
2022-08-25T02:49:00.100Z,4.33
2022-08-25T02:51:31.796Z,5.00
2022-08-25T02:54:02.059Z,5.70
2022-08-25T02:56:30.429Z,4.97
2022-08-25T02:58:58.341Z,5.07
2022-08-25T03:01:28.630Z,5.13
2022-08-25T03:03:57.233Z,4.87
2022-08-25T03:06:24.953Z,4.50
2022-08-25T03:08:53.369Z,5.43
2022-08-25T03:11:21.843Z,5.80
2022-08-25T03:13:51.170Z,5.77
2022-08-25T03:16:19.217Z,5.47
2022-08-25T03:18:46.388Z,5.60
2022-08-25T03:21:13.491Z,5.93
2022-08-25T03:23:43.590Z,5.23
2022-08-25T03:26:29.077Z,5.83
2022-08-25T03:28:56.161Z,5.50
2022-08-25T03:31:26.188Z,6.03
2022-08-25T03:33:53.904Z,5.97
2022-08-25T03:36:21.048Z,6.43
2022-08-25T03:38:48.081Z,7.57
2022-08-25T03:41:21.603Z,7.07
2022-08-25T03:43:50.116Z,6.43
2022-08-25T03:46:22.819Z,7.13
2022-08-25T03:48:50.452Z,6.37
2022-08-25T03:51:23.044Z,7.07
2022-08-25T03:53:51.061Z,7.00
2022-08-25T03:56:18.678Z,7.43
2022-08-25T03:58:46.109Z,7.70
2022-08-25T04:01:13.536Z,6.90
2022-08-25T04:03:42.509Z,7.47
2022-08-25T04:06:10.379Z,6.93
2022-08-25T04:08:38.291Z,7.37
2022-08-25T04:11:18.012Z,7.50
2022-08-25T04:13:46.661Z,6.77
2022-08-25T04:16:23.778Z,7.80
2022-08-25T04:18:52.873Z,7.53
2022-08-25T04:21:21.248Z,7.87
2022-08-25T04:23:49.497Z,6.97
2022-08-25T04:26:33.629Z,8.03
2022-08-25T04:29:02.976Z,7.20
2022-08-25T04:31:30.936Z,7.20
2022-08-25T04:33:58.487Z,7.67
2022-08-25T04:36:25.502Z,7.33
2022-08-25T04:38:52.664Z,7.00
2022-08-25T04:41:21.888Z,7.30
2022-08-25T04:43:49.339Z,6.77
2022-08-25T04:46:22.810Z,7.53
2022-08-25T04:48:51.739Z,7.23
2022-08-25T04:51:23.537Z,7.23
2022-08-25T04:53:51.914Z,7.40
2022-08-25T04:56:21.719Z,7.80
2022-08-25T04:58:48.720Z,7.23
2022-08-25T05:01:19.001Z,7.83
2022-08-25T05:03:48.370Z,7.00
2022-08-25T05:06:16.406Z,7.83
2022-08-25T05:08:45.987Z,6.97
2022-08-25T05:11:15.842Z,8.20
2022-08-25T05:13:44.262Z,7.50
2022-08-25T05:16:20.028Z,7.67
2022-08-25T05:18:47.142Z,7.97
2022-08-25T05:21:18.230Z,7.77
2022-08-25T05:23:47.042Z,7.70
2022-08-25T05:26:20.253Z,8.40
2022-08-25T05:28:50.466Z,9.03
2022-08-25T05:31:18.794Z,9.20
2022-08-25T05:33:46.117Z,9.00
2022-08-25T05:36:15.385Z,9.20
2022-08-25T05:38:42.599Z,8.63
2022-08-25T05:41:13.185Z,9.13
2022-08-25T05:43:42.404Z,9.23
2022-08-25T05:46:10.682Z,9.70
2022-08-25T05:48:38.405Z,9.23
2022-08-25T05:51:07.933Z,9.80
2022-08-25T05:53:36.152Z,9.10
2022-08-25T05:56:03.605Z,9.17
2022-08-25T05:58:31.733Z,10.27
2022-08-25T06:01:23.584Z,10.13
2022-08-25T06:03:53.675Z,10.53
2022-08-25T06:06:24.537Z,10.73
2022-08-25T06:08:51.931Z,10.40
2022-08-25T06:11:19.421Z,10.13
2022-08-25T06:13:46.613Z,11.13
2022-08-25T06:16:13.732Z,10.00
2022-08-25T06:18:40.797Z,10.20
2022-08-25T06:21:14.397Z,10.50
2022-08-25T06:23:41.995Z,9.63
2022-08-25T06:26:19.072Z,10.70
2022-08-25T06:28:50.393Z,9.83
2022-08-25T06:31:17.681Z,9.30
2022-08-25T06:33:45.047Z,11.00
2022-08-25T06:36:12.272Z,9.80
2022-08-25T06:38:39.359Z,10.63
2022-08-25T06:41:08.379Z,10.50
2022-08-25T06:43:35.667Z,10.03
2022-08-25T06:46:14.322Z,9.87
2022-08-25T06:48:42.160Z,9.60
2022-08-25T06:51:14.157Z,9.63
2022-08-25T06:53:42.908Z,8.47
2022-08-25T06:56:11.092Z,8.77
2022-08-25T06:58:38.897Z,9.57
2022-08-25T07:01:19.774Z,9.23
2022-08-25T07:03:48.041Z,9.27
2022-08-25T07:06:17.222Z,8.83
2022-08-25T07:08:46.784Z,9.13
2022-08-25T07:11:17.337Z,8.90
2022-08-25T07:13:45.595Z,9.63
2022-08-25T07:16:15.455Z,9.33
2022-08-25T07:18:44.093Z,9.30
2022-08-25T07:21:12.904Z,8.13
2022-08-25T07:23:43.071Z,8.90
2022-08-25T07:26:37.282Z,7.83
2022-08-25T07:29:15.129Z,8.10
2022-08-25T07:31:42.624Z,7.60
2022-08-25T07:34:28.691Z,7.80
2022-08-25T07:36:57.331Z,6.97
2022-08-25T07:39:29.099Z,6.90
2022-08-25T07:41:56.550Z,6.43
2022-08-25T07:44:24.540Z,6.83
2022-08-25T07:46:55.301Z,6.67
2022-08-25T07:49:25.280Z,6.57
2022-08-25T07:52:05.337Z,5.63
2022-08-25T07:54:38.004Z,6.30
2022-08-25T07:57:07.817Z,5.67
2022-08-25T07:59:39.977Z,5.27
2022-08-25T08:02:18.390Z,6.40
2022-08-25T08:04:50.748Z,6.20
2022-08-25T08:07:23.499Z,5.33
2022-08-25T08:10:00.457Z,4.33
2022-08-25T08:12:38.736Z,4.93
2022-08-25T08:15:10.250Z,5.10
2022-08-25T08:17:38.478Z,4.50
2022-08-25T08:20:10.157Z,5.70
2022-08-25T08:22:43.488Z,4.57
2022-08-25T08:25:11.353Z,3.53
2022-08-25T08:27:46.299Z,5.27
2022-08-25T08:30:14.167Z,4.13
2022-08-25T08:33:06.313Z,4.30
2022-08-25T08:35:28.636Z,4.00
2022-08-25T08:37:55.629Z,4.40
2022-08-25T08:40:22.756Z,4.40
2022-08-25T08:43:18.106Z,4.03
2022-08-25T08:45:53.043Z,4.73
2022-08-25T08:48:52.346Z,4.90
2022-08-25T08:51:33.456Z,4.37
2022-08-25T08:54:15.473Z,4.17
2022-08-25T08:56:49.195Z,4.27
2022-08-25T08:59:30.151Z,4.53
2022-08-25T09:02:02.778Z,3.73
2022-08-25T09:04:58.014Z,4.10
2022-08-25T09:07:35.394Z,3.87
2022-08-25T09:10:04.936Z,4.07
2022-08-25T09:12:35.681Z,4.30
2022-08-25T09:15:12.787Z,4.40
2022-08-25T09:17:54.597Z,4.00
2022-08-25T09:21:07.961Z,4.50
2022-08-25T09:23:40.930Z,4.37
2022-08-25T09:26:25.672Z,4.50
2022-08-25T09:29:16.399Z,4.77
2022-08-25T09:31:45.287Z,4.17
2022-08-25T09:34:14.044Z,4.57
2022-08-25T09:36:41.317Z,4.43
2022-08-25T09:39:09.873Z,3.70
2022-08-25T09:41:47.831Z,4.07
2022-08-25T09:44:43.609Z,4.30
2022-08-25T09:47:24.168Z,3.60
2022-08-25T09:50:00.982Z,4.47
2022-08-25T09:52:34.083Z,3.80
2022-08-25T09:55:22.861Z,4.43
2022-08-25T09:57:55.097Z,3.93
2022-08-25T10:00:33.465Z,3.93
2022-08-25T10:03:11.936Z,3.60
2022-08-25T10:06:04.329Z,4.10
2022-08-25T10:08:39.960Z,4.03
2022-08-25T10:11:14.697Z,3.90
2022-08-25T10:13:46.968Z,3.87
2022-08-25T10:16:33.608Z,3.63
2022-08-25T10:19:08.668Z,3.90
2022-08-25T10:21:38.338Z,3.33
2022-08-25T10:24:09.202Z,4.07
2022-08-25T10:27:07.029Z,3.70
2022-08-25T10:29:52.844Z,3.67
2022-08-25T10:32:35.853Z,3.80
2022-08-25T10:35:26.931Z,3.97
2022-08-25T10:38:21.969Z,3.57
2022-08-25T10:41:10.037Z,3.70
2022-08-25T10:43:58.655Z,3.63
2022-08-25T10:46:47.951Z,4.13
2022-08-25T10:49:33.809Z,3.97
2022-08-25T10:52:12.726Z,3.60
2022-08-25T10:54:57.362Z,3.90
2022-08-25T10:57:56.476Z,4.67
2022-08-25T11:00:31.613Z,3.83
2022-08-25T11:03:23.106Z,3.60
2022-08-25T11:06:05.332Z,3.80
2022-08-25T11:08:40.964Z,3.23
2022-08-25T11:11:13.881Z,3.67
2022-08-25T11:13:53.209Z,3.17
2022-08-25T11:16:40.853Z,3.60
2022-08-25T11:19:17.445Z,3.70
2022-08-25T11:22:04.507Z,3.70
2022-08-25T11:24:59.976Z,3.53
2022-08-25T11:27:55.934Z,3.23
2022-08-25T11:30:23.149Z,3.70
2022-08-25T11:32:55.273Z,3.50
2022-08-25T11:35:51.180Z,3.37
2022-08-25T11:38:43.439Z,3.83
2022-08-25T11:41:39.604Z,3.47
2022-08-25T11:44:53.095Z,3.77
2022-08-25T11:47:39.864Z,3.80
2022-08-25T11:50:23.421Z,4.03
2022-08-25T11:52:56.406Z,3.93
2022-08-25T11:55:37.319Z,3.33
2022-08-25T11:58:28.238Z,3.70
2022-08-25T12:01:00.039Z,3.60
2022-08-25T12:03:32.946Z,3.37
2022-08-25T12:06:26.829Z,4.37
2022-08-25T12:09:13.832Z,4.53
2022-08-25T12:11:49.731Z,3.43
2022-08-25T12:14:22.644Z,3.30
2022-08-25T12:16:56.621Z,4.27
2022-08-25T12:19:25.478Z,3.77
2022-08-25T12:21:55.779Z,3.73
2022-08-25T12:24:48.020Z,3.73
2022-08-25T12:27:33.579Z,3.77
2022-08-25T12:30:20.997Z,3.87
2022-08-25T12:32:57.394Z,3.10
2022-08-25T12:35:32.164Z,2.90
2022-08-25T12:38:15.798Z,3.40
2022-08-25T12:40:42.987Z,3.37
2022-08-25T12:43:26.705Z,3.20
2022-08-25T12:46:15.374Z,3.20
2022-08-25T12:48:56.167Z,3.37
2022-08-25T12:51:26.702Z,3.27
2022-08-25T12:54:01.348Z,3.50
2022-08-25T12:56:39.231Z,3.17
2022-08-25T12:59:21.958Z,3.13
2022-08-25T13:02:26.703Z,2.67
2022-08-25T13:05:16.942Z,2.90
2022-08-25T13:08:04.293Z,3.00
2022-08-25T13:10:37.654Z,3.67
2022-08-25T13:13:39.747Z,3.13
2022-08-25T13:16:15.611Z,3.43
2022-08-25T13:18:42.676Z,3.37
2022-08-25T13:21:30.940Z,3.00
2022-08-25T13:24:05.213Z,3.40
2022-08-25T13:26:48.062Z,2.93
2022-08-25T13:29:25.791Z,3.00
2022-08-25T13:31:57.787Z,2.90
2022-08-25T13:34:36.322Z,2.97
2022-08-25T13:37:32.412Z,3.17
2022-08-25T13:40:25.898Z,3.60
2022-08-25T13:42:59.837Z,3.47
2022-08-25T13:45:34.682Z,2.80
2022-08-25T13:48:22.378Z,3.40
2022-08-25T13:50:52.809Z,2.90
2022-08-25T13:53:26.301Z,3.40
2022-08-25T13:55:58.031Z,3.53
2022-08-25T13:58:44.458Z,3.00
2022-08-25T14:01:48.458Z,3.00
2022-08-25T14:04:30.879Z,2.90
2022-08-25T14:07:09.285Z,2.97
2022-08-25T14:09:57.359Z,3.10
2022-08-25T14:12:39.949Z,3.20
2022-08-25T14:15:10.511Z,2.97
2022-08-25T14:17:41.204Z,3.30
2022-08-25T14:20:22.077Z,3.40
2022-08-25T14:22:54.407Z,3.20
2022-08-25T14:25:22.044Z,2.77
2022-08-25T14:28:13.661Z,3.33
2022-08-25T14:30:46.509Z,2.83
2022-08-25T14:33:16.168Z,3.27
2022-08-25T14:35:45.860Z,3.10
2022-08-25T14:38:14.643Z,3.27
2022-08-25T14:40:41.984Z,3.10
2022-08-25T14:43:09.676Z,3.43
2022-08-25T14:45:40.082Z,3.20
2022-08-25T14:48:28.119Z,3.33
2022-08-25T14:50:58.796Z,2.93
2022-08-25T14:53:27.315Z,3.37
2022-08-25T14:55:59.062Z,3.20
2022-08-25T14:58:27.667Z,3.23
2022-08-25T15:01:02.086Z,2.70
2022-08-25T15:03:36.571Z,2.80
2022-08-25T15:06:05.970Z,3.17
2022-08-25T15:08:51.579Z,2.73
2022-08-25T15:11:18.769Z,3.27
2022-08-25T15:13:49.494Z,2.80
2022-08-25T15:16:38.606Z,2.80
2022-08-25T15:19:07.950Z,2.87
2022-08-25T15:21:36.606Z,3.03
2022-08-25T15:24:05.853Z,3.30
2022-08-25T15:26:41.008Z,2.90
2022-08-25T15:29:08.431Z,2.73
2022-08-25T15:31:37.407Z,2.97
2022-08-25T15:34:04.456Z,2.67
2022-08-25T15:36:34.666Z,2.87
2022-08-25T15:39:02.916Z,2.93
2022-08-25T15:41:31.017Z,2.90
2022-08-25T15:44:00.567Z,2.90
2022-08-25T15:46:30.326Z,3.10
2022-08-25T15:48:59.550Z,3.00
2022-08-25T15:51:28.509Z,2.67
2022-08-25T15:53:56.667Z,3.10
2022-08-25T15:56:26.836Z,3.37
2022-08-25T15:58:55.615Z,3.23
2022-08-25T16:01:25.916Z,3.30
2022-08-25T16:03:54.008Z,3.30
2022-08-25T16:06:21.852Z,2.90
2022-08-25T16:08:48.974Z,2.47
2022-08-25T16:11:22.579Z,2.90
2022-08-25T16:13:50.649Z,2.80
2022-08-25T16:16:19.393Z,3.43
2022-08-25T16:18:46.873Z,2.57
2022-08-25T16:21:19.522Z,2.87
2022-08-25T16:23:47.429Z,3.17
2022-08-25T16:26:16.337Z,2.70
2022-08-25T16:28:45.169Z,2.83
2022-08-25T16:31:15.065Z,3.20
2022-08-25T16:33:44.579Z,3.00
2022-08-25T16:36:13.082Z,3.03
2022-08-25T16:38:42.249Z,2.80
2022-08-25T16:41:25.534Z,3.00
2022-08-25T16:43:53.291Z,3.00
2022-08-25T16:46:21.775Z,3.30
2022-08-25T16:48:51.279Z,3.00
2022-08-25T16:51:22.725Z,3.17
2022-08-25T16:54:22.028Z,3.13
2022-08-25T16:56:54.931Z,2.70
2022-08-25T16:59:23.627Z,3.07
2022-08-25T17:01:51.570Z,2.77
2022-08-25T17:04:18.677Z,2.60
2022-08-25T17:06:51.803Z,3.07
2022-08-25T17:09:23.058Z,2.80
2022-08-25T17:11:54.185Z,3.20
2022-08-25T17:14:21.937Z,2.93
2022-08-25T17:16:51.210Z,3.60
2022-08-25T17:19:18.929Z,2.90
2022-08-25T17:21:47.076Z,3.10
2022-08-25T17:24:17.183Z,2.80
2022-08-25T17:26:50.127Z,3.50
2022-08-25T17:29:18.281Z,3.57
2022-08-25T17:31:48.494Z,3.50
2022-08-25T17:34:16.926Z,3.87
2022-08-25T17:36:50.729Z,3.57
2022-08-25T17:39:22.069Z,4.00
2022-08-25T17:41:50.629Z,4.90
2022-08-25T17:44:18.183Z,5.90
2022-08-25T17:46:47.296Z,5.20
2022-08-25T17:49:15.763Z,3.50
2022-08-25T17:51:42.868Z,3.43
2022-08-25T17:54:10.938Z,3.30
2022-08-25T17:56:38.239Z,3.27
2022-08-25T17:59:06.576Z,3.10
2022-08-25T18:01:40.569Z,3.20
2022-08-25T18:04:17.540Z,3.27
2022-08-25T18:06:46.168Z,3.20
2022-08-25T18:09:13.809Z,3.13
2022-08-25T18:11:40.953Z,3.60
2022-08-25T18:14:10.854Z,3.30
2022-08-25T18:16:38.423Z,3.77
2022-08-25T18:19:06.624Z,3.83
2022-08-25T18:21:37.098Z,3.77
2022-08-25T18:24:05.215Z,4.00
2022-08-25T18:26:32.567Z,3.53
2022-08-25T18:28:59.651Z,3.90
2022-08-25T18:31:26.717Z,3.37
2022-08-25T18:33:53.936Z,3.73
2022-08-25T18:36:21.202Z,4.07
2022-08-25T18:39:07.548Z,3.50
2022-08-25T18:41:40.305Z,3.77
2022-08-25T18:44:08.211Z,4.07
2022-08-25T18:46:38.170Z,3.47
2022-08-25T18:49:05.897Z,3.70
2022-08-25T18:51:33.337Z,3.40
2022-08-25T18:54:01.505Z,3.33
2022-08-25T18:56:29.185Z,3.47
2022-08-25T18:58:57.123Z,4.00
2022-08-25T19:01:24.277Z,3.83
2022-08-25T19:03:51.501Z,3.60
2022-08-25T19:06:19.534Z,4.23
2022-08-25T19:08:48.257Z,3.93
2022-08-25T19:11:16.638Z,3.73
2022-08-25T19:13:44.649Z,3.93
2022-08-25T19:16:20.374Z,3.93
2022-08-25T19:18:49.036Z,3.87
2022-08-25T19:21:22.815Z,3.80
2022-08-25T19:23:50.880Z,3.83
2022-08-25T19:26:20.279Z,3.90
2022-08-25T19:28:49.505Z,3.93
2022-08-25T19:31:18.750Z,4.40
2022-08-25T19:33:47.478Z,6.20
2022-08-25T19:36:16.023Z,7.03
2022-08-25T19:38:44.466Z,7.07
2022-08-25T19:41:14.563Z,7.93
2022-08-25T19:43:56.402Z,7.90
2022-08-25T19:46:35.392Z,8.40
2022-08-25T19:49:31.565Z,8.10
2022-08-25T19:51:59.466Z,9.33
2022-08-25T19:54:30.317Z,8.30
2022-08-25T19:56:59.192Z,9.27
2022-08-25T19:59:40.618Z,9.37
2022-08-25T20:02:25.047Z,8.40
2022-08-25T20:04:54.654Z,7.93
2022-08-25T20:07:25.141Z,7.57
2022-08-25T20:09:53.717Z,7.73
2022-08-25T20:12:22.865Z,6.90
2022-08-25T20:14:51.571Z,6.97
2022-08-25T20:17:23.910Z,7.60
2022-08-25T20:19:55.849Z,6.97
2022-08-25T20:22:27.884Z,5.73
2022-08-25T20:25:01.212Z,5.70
2022-08-25T20:27:46.899Z,5.40
2022-08-25T20:30:19.496Z,5.23
2022-08-25T20:32:46.644Z,5.97
2022-08-25T20:35:14.945Z,5.63
2022-08-25T20:37:43.998Z,4.97
2022-08-25T20:40:13.657Z,5.10
2022-08-25T20:42:40.954Z,5.83
2022-08-25T20:45:11.125Z,5.30
2022-08-25T20:47:38.262Z,5.63
2022-08-25T20:50:07.807Z,5.47
2022-08-25T20:52:34.945Z,5.17
2022-08-25T20:55:01.999Z,5.67
2022-08-25T20:57:28.955Z,6.00
2022-08-25T20:59:58.317Z,5.77
2022-08-25T21:02:27.558Z,5.00
2022-08-25T21:04:57.099Z,5.43
2022-08-25T21:07:25.294Z,5.90
2022-08-25T21:09:52.741Z,5.20
2022-08-25T21:12:20.526Z,5.80
2022-08-25T21:14:48.249Z,5.23
2022-08-25T21:17:15.918Z,5.80
2022-08-25T21:19:49.998Z,5.20
2022-08-25T21:22:17.165Z,5.40
2022-08-25T21:24:45.150Z,5.73
2022-08-25T21:27:12.236Z,5.97
2022-08-25T21:29:54.405Z,5.67
2022-08-25T21:32:22.546Z,5.13
2022-08-25T21:34:56.861Z,5.87
2022-08-25T21:37:26.448Z,5.80
2022-08-25T21:39:54.343Z,5.87
2022-08-25T21:42:22.585Z,6.03
2022-08-25T21:44:50.579Z,5.93
2022-08-25T21:47:21.035Z,5.77
2022-08-25T21:49:49.745Z,6.00
2022-08-25T21:52:17.300Z,5.53
2022-08-25T21:54:45.056Z,4.60
2022-08-25T21:57:12.430Z,4.93
2022-08-25T21:59:41.073Z,5.80
2022-08-25T22:02:10.416Z,5.70
2022-08-25T22:04:39.421Z,6.07
2022-08-25T22:07:07.972Z,5.87
2022-08-25T22:09:35.677Z,5.93
2022-08-25T22:12:03.913Z,5.40
2022-08-25T22:14:32.387Z,5.50
2022-08-25T22:17:00.439Z,5.63
2022-08-25T22:19:28.249Z,6.13
2022-08-25T22:21:56.758Z,5.93
2022-08-25T22:24:28.455Z,5.17
2022-08-25T22:26:56.506Z,5.17
2022-08-25T22:29:25.174Z,4.77
2022-08-25T22:31:59.489Z,5.50
2022-08-25T22:34:33.060Z,4.77
2022-08-25T22:37:05.023Z,5.33
2022-08-25T22:39:34.451Z,5.00
2022-08-25T22:42:02.888Z,5.00
2022-08-25T22:44:30.054Z,4.83
2022-08-25T22:46:57.109Z,5.17
2022-08-25T22:49:24.158Z,5.80
2022-08-25T22:51:51.714Z,5.10
2022-08-25T22:54:22.232Z,5.53
2022-08-25T22:56:49.209Z,4.90
2022-08-25T22:59:16.284Z,5.27
2022-08-25T23:01:44.296Z,4.73
2022-08-25T23:04:12.046Z,4.90
2022-08-25T23:06:39.819Z,4.87
2022-08-25T23:09:08.697Z,5.70
2022-08-25T23:11:38.568Z,4.87
2022-08-25T23:14:10.291Z,4.97
2022-08-25T23:16:42.656Z,5.77
2022-08-25T23:19:13.788Z,4.87
2022-08-25T23:22:01.326Z,5.73
2022-08-25T23:24:30.413Z,5.33
2022-08-25T23:26:59.779Z,5.77
2022-08-25T23:29:27.943Z,5.73
2022-08-25T23:31:56.104Z,5.43
2022-08-25T23:34:24.097Z,5.30
2022-08-25T23:36:51.444Z,5.20
2022-08-25T23:39:18.734Z,5.33
2022-08-25T23:41:49.493Z,5.50
2022-08-25T23:44:17.589Z,5.87
2022-08-25T23:46:47.282Z,5.70
2022-08-25T23:49:19.663Z,5.60
2022-08-25T23:51:51.731Z,5.30
2022-08-25T23:54:21.203Z,5.63
2022-08-25T23:56:51.591Z,5.20
2022-08-25T23:59:24.330Z,5.37
